Time;durP1;ratioP1;P1;durP2;ratioP2;P2;SDS_P1;SDS_P2;PMS_P1;PMS_P2;Temp;Humidity;BMP_temperature;BMP_pressure;BME280_temperature;BME280_humidity;BME280_pressure;Samples;Min_cycle;Max_cycle;Signal;HPM_P1;HPM_P2
2023/07/05 00:02:10;;;;;;;2.47;0.77;;;;;;;26.59;84.10;99271.88;5072094;28;20599;-65
2023/07/05 00:04:37;;;;;;;2.10;0.73;;;;;;;26.59;84.17;99269.25;5072627;28;20660;-65
2023/07/05 00:07:04;;;;;;;0.83;0.83;;;;;;;26.50;85.01;99251.72;5072435;28;20227;-66
2023/07/05 00:09:31;;;;;;;1.40;1.30;;;;;;;26.60;84.84;99268.25;5072598;28;20195;-65
2023/07/05 00:11:57;;;;;;;0.80;0.80;;;;;;;26.58;85.30;99264.94;5072701;28;20203;-65
2023/07/05 00:14:26;;;;;;;0.80;0.80;;;;;;;26.56;85.32;99266.88;5072147;28;20257;-65
2023/07/05 00:16:52;;;;;;;1.13;0.90;;;;;;;26.54;85.54;99266.22;5072329;28;20192;-65
2023/07/05 00:19:19;;;;;;;1.10;1.10;;;;;;;26.52;85.22;99260.28;5072756;28;20200;-65
2023/07/05 00:21:46;;;;;;;0.70;0.70;;;;;;;26.50;85.19;99255.16;5072291;28;20204;-65
2023/07/05 00:24:12;;;;;;;0.93;0.93;;;;;;;26.48;85.03;99248.41;5071990;28;20569;-65
2023/07/05 00:26:39;;;;;;;1.37;0.87;;;;;;;26.46;84.76;99245.13;5072423;28;20676;-66
2023/07/05 00:29:06;;;;;;;0.93;0.93;;;;;;;26.45;85.84;99251.34;5072009;28;20257;-65
2023/07/05 00:31:34;;;;;;;1.73;1.10;;;;;;;26.43;85.46;99250.69;5071819;28;20691;-65
2023/07/05 00:34:01;;;;;;;0.73;0.73;;;;;;;26.41;86.12;99242.94;5069563;28;20219;-65
2023/07/05 00:36:28;;;;;;;0.80;0.80;;;;;;;26.39;86.08;99244.91;5070746;28;20558;-65
2023/07/05 00:38:54;;;;;;;1.37;1.27;;;;;;;26.36;86.06;99231.22;5072035;28;20656;-66
2023/07/05 00:41:21;;;;;;;1.07;0.90;;;;;;;26.31;86.23;99231.66;5071711;28;20207;-65
2023/07/05 00:43:49;;;;;;;1.00;1.00;;;;;;;26.27;87.21;99232.94;5071675;28;20203;-65
2023/07/05 00:46:20;;;;;;;0.93;0.93;;;;;;;26.26;87.12;99230.47;5071680;28;20247;-65
2023/07/05 00:48:53;;;;;;;0.70;0.70;;;;;;;26.26;87.58;99231.31;5070390;28;20199;-65
2023/07/05 00:51:23;;;;;;;0.77;0.77;;;;;;;26.25;87.58;99232.25;5071770;28;20202;-65
2023/07/05 00:53:51;;;;;;;0.77;0.77;;;;;;;26.26;87.66;99233.09;5071498;28;20245;-65
2023/07/05 00:56:22;;;;;;;0.87;0.77;;;;;;;26.23;87.79;99228.13;5071517;28;20684;-66
2023/07/05 00:58:50;;;;;;;1.50;1.10;;;;;;;26.21;87.68;99235.31;5071448;28;20196;-65
2023/07/05 01:01:17;;;;;;;0.97;0.97;;;;;;;26.17;87.85;99234.00;5071582;28;20219;-65
2023/07/05 01:03:50;;;;;;;1.00;0.97;;;;;;;26.16;88.20;99221.78;5071306;28;20203;-65
2023/07/05 01:06:21;;;;;;;1.07;1.07;;;;;;;26.15;88.03;99220.13;5070949;28;20216;-66
2023/07/05 01:08:48;;;;;;;1.07;1.07;;;;;;;26.10;89.05;99223.22;5071299;28;20286;-65
2023/07/05 01:11:23;;;;;;;1.23;1.17;;;;;;;26.06;89.22;99225.31;5071481;28;20196;-65
2023/07/05 01:13:59;;;;;;;1.37;1.27;;;;;;;26.03;89.59;99228.25;5071779;28;20218;-65
2023/07/05 01:16:40;;;;;;;0.97;0.97;;;;;;;26.03;90.47;99220.34;5071575;28;20642;-65
2023/07/05 01:19:24;;;;;;;1.47;1.23;;;;;;;25.98;90.49;99213.88;5071044;28;20272;-65
2023/07/05 01:21:56;;;;;;;0.87;0.87;;;;;;;25.91;92.22;99218.09;5071246;28;20196;-65
2023/07/05 01:24:48;;;;;;;0.87;0.87;;;;;;;25.86;92.56;99220.31;5071213;28;20203;-65
2023/07/05 01:27:54;;;;;;;1.27;1.27;;;;;;;25.84;92.84;99233.63;5070100;28;20219;-66
2023/07/05 01:30:45;;;;;;;0.80;0.80;;;;;;;25.85;94.00;99229.19;5025623;28;20211;-65
2023/07/05 01:33:19;;;;;;;1.30;0.70;;;;;;;25.81;94.03;99227.81;5041785;28;20257;-65
2023/07/05 01:35:51;;;;;;;0.97;0.90;;;;;;;25.78;94.16;99213.19;5070940;28;20195;-66
2023/07/05 01:38:18;;;;;;;0.77;0.77;;;;;;;25.79;93.98;99225.34;5071098;28;20230;-65
2023/07/05 01:41:02;;;;;;;1.53;1.30;;;;;;;25.78;94.20;99222.88;5071141;28;20204;-65
2023/07/05 01:43:31;;;;;;;0.77;0.77;;;;;;;25.74;95.09;99214.44;5066718;28;20672;-65
2023/07/05 01:46:22;;;;;;;0.80;0.80;;;;;;;25.68;95.15;99217.66;5070815;28;20274;-65
2023/07/05 01:49:02;;;;;;;1.17;1.17;;;;;;;25.57;95.04;99204.72;5075245;28;20245;-65
2023/07/05 01:51:35;;;;;;;1.10;1.10;;;;;;;25.65;95.26;99217.97;5070173;28;20192;-65
2023/07/05 01:54:10;;;;;;;1.13;1.13;;;;;;;25.64;96.01;99216.31;5075167;28;20742;-65
2023/07/05 01:56:48;;;;;;;1.50;0.60;;;;;;;25.63;95.98;99214.63;5075279;28;20649;-65
2023/07/05 01:59:18;;;;;;;1.43;1.00;;;;;;;25.63;95.63;99214.63;5074424;28;20211;-65
2023/07/05 02:01:46;;;;;;;0.93;0.80;;;;;;;25.64;95.41;99210.22;5074936;28;20715;-65
2023/07/05 02:04:15;;;;;;;1.80;1.00;;;;;;;25.62;94.92;99213.00;5074624;28;20663;-65
2023/07/05 02:06:43;;;;;;;1.17;1.07;;;;;;;25.60;95.00;99212.31;5075025;28;20215;-65
2023/07/05 02:09:10;;;;;;;0.80;0.80;;;;;;;25.61;94.87;99221.84;5074970;28;20704;-65
2023/07/05 02:11:37;;;;;;;0.97;0.90;;;;;;;25.58;95.35;99224.75;5074774;28;20249;-65
2023/07/05 02:14:05;;;;;;;1.10;1.00;;;;;;;25.54;95.76;99216.34;5074441;28;20204;-65
2023/07/05 02:16:32;;;;;;;0.70;0.70;;;;;;;25.53;96.08;99221.72;5074798;28;20224;-65
2023/07/05 02:18:59;;;;;;;1.10;0.83;;;;;;;25.55;95.68;99232.94;5074685;28;20737;-66
2023/07/05 02:21:27;;;;;;;4.83;1.23;;;;;;;25.53;95.82;99232.22;5074446;28;20249;-65
2023/07/05 02:23:54;;;;;;;1.17;1.17;;;;;;;25.53;96.27;99242.72;5074582;28;20200;-65
2023/07/05 02:26:20;;;;;;;0.70;0.70;;;;;;;25.51;95.79;99240.25;5074309;28;20226;-65
2023/07/05 02:28:47;;;;;;;1.07;0.90;;;;;;;25.46;96.64;99244.28;5074473;28;20687;-65
2023/07/05 02:31:14;;;;;;;1.17;1.07;;;;;;;25.43;96.83;99244.53;5074212;28;20211;-65
2023/07/05 02:33:43;;;;;;;0.80;0.80;;;;;;;25.38;96.37;99242.34;5074180;28;20200;-65
2023/07/05 02:36:13;;;;;;;0.70;0.70;;;;;;;25.37;96.38;99242.47;5074293;28;21303;-65
2023/07/05 02:38:41;;;;;;;0.70;0.70;;;;;;;25.32;96.19;99245.56;5075071;28;20200;-65
2023/07/05 02:41:08;;;;;;;2.07;1.23;;;;;;;25.17;96.32;99222.53;5074240;28;20199;-65
2023/07/05 02:43:36;;;;;;;1.03;0.93;;;;;;;25.17;96.12;99235.66;5073945;28;20189;-65
2023/07/05 02:46:05;;;;;;;1.80;0.80;;;;;;;25.11;96.27;99223.09;5073767;28;20223;-65
2023/07/05 02:48:32;;;;;;;0.83;0.83;;;;;;;25.20;96.23;99240.63;5074470;28;20196;-65
2023/07/05 02:50:58;;;;;;;1.27;1.27;;;;;;;25.17;96.25;99244.34;5074152;28;20633;-65
2023/07/05 02:53:25;;;;;;;0.70;0.70;;;;;;;25.17;96.08;99238.28;5073829;28;20699;-65
2023/07/05 02:55:53;;;;;;;0.93;0.93;;;;;;;25.16;96.54;99228.75;5074036;28;20192;-65
2023/07/05 02:58:20;;;;;;;1.13;1.03;;;;;;;25.13;96.62;99231.66;5072880;28;20204;-65
2023/07/05 03:00:48;;;;;;;0.90;0.90;;;;;;;25.04;97.43;99223.66;5071474;28;20211;-65
2023/07/05 03:03:14;;;;;;;1.13;1.10;;;;;;;25.11;97.74;99236.19;5073756;28;20860;-65
2023/07/05 03:05:41;;;;;;;0.80;0.80;;;;;;;25.10;97.88;99231.94;5073688;28;20607;-65
2023/07/05 03:08:09;;;;;;;2.57;0.73;;;;;;;25.07;97.69;99228.63;5073787;28;20679;-65
2023/07/05 03:10:39;;;;;;;1.33;1.33;;;;;;;25.03;98.40;99222.03;5073847;28;20715;-66
2023/07/05 03:13:07;;;;;;;0.90;0.90;;;;;;;24.87;98.76;99206.06;5073671;28;20282;-65
2023/07/05 03:15:34;;;;;;;0.87;0.87;;;;;;;24.93;99.59;99221.22;5072323;28;20200;-65
2023/07/05 03:18:01;;;;;;;0.87;0.87;;;;;;;24.91;99.63;99222.34;5073489;28;20199;-65
2023/07/05 03:20:27;;;;;;;1.40;0.80;;;;;;;24.91;100.00;99223.13;5073763;28;20672;-65
2023/07/05 03:22:54;;;;;;;0.70;0.70;;;;;;;24.89;100.00;99225.09;5073404;28;20665;-65
2023/07/05 03:25:21;;;;;;;0.90;0.90;;;;;;;24.86;100.00;99217.50;5073057;28;20761;-65
2023/07/05 03:27:48;;;;;;;1.13;1.10;;;;;;;24.88;100.00;99233.91;5073171;28;20266;-65
2023/07/05 03:30:16;;;;;;;1.03;1.03;;;;;;;24.85;100.00;99215.84;5073393;28;20625;-65
2023/07/05 03:32:43;;;;;;;0.90;0.90;;;;;;;24.93;100.00;99223.00;5073242;28;20208;-66
2023/07/05 03:35:10;;;;;;;0.70;0.70;;;;;;;24.93;100.00;99226.47;5073020;28;20200;-66
2023/07/05 03:37:37;;;;;;;0.90;0.90;;;;;;;24.92;100.00;99229.22;5073099;28;20196;-65
2023/07/05 03:40:04;;;;;;;1.40;1.13;;;;;;;24.95;100.00;99224.50;5072560;28;20199;-65
2023/07/05 03:42:31;;;;;;;0.67;0.67;;;;;;;24.95;100.00;99224.50;5073356;28;20204;-65
2023/07/05 03:44:58;;;;;;;0.90;0.90;;;;;;;24.97;99.65;99233.09;5073004;28;20196;-65
2023/07/05 03:47:28;;;;;;;0.90;0.90;;;;;;;24.90;99.34;99233.78;5072856;28;20219;-65
2023/07/05 03:49:54;;;;;;;0.83;0.83;;;;;;;24.93;99.51;99238.75;5072471;28;20208;-65
2023/07/05 03:52:23;;;;;;;1.27;0.93;;;;;;;24.78;99.97;99206.84;5073026;28;20211;-66
2023/07/05 03:54:50;;;;;;;0.70;0.70;;;;;;;24.96;99.54;99233.22;5072521;28;20219;-66
2023/07/05 03:57:16;;;;;;;1.10;1.10;;;;;;;25.00;99.38;99238.06;5072574;28;20192;-65
2023/07/05 03:59:43;;;;;;;0.70;0.70;;;;;;;24.90;99.30;99239.03;5072094;28;20195;-65
2023/07/05 04:02:10;;;;;;;0.90;0.90;;;;;;;24.71;100.00;99247.72;5071199;28;20285;-65
2023/07/05 04:04:38;;;;;;;0.87;0.53;;;;;;;24.57;100.00;99219.28;5072630;28;20610;-65
2023/07/05 04:07:05;;;;;;;1.47;1.37;;;;;;;24.67;100.00;99230.59;5071903;28;20595;-65
2023/07/05 04:09:32;;;;;;;1.63;1.10;;;;;;;24.75;100.00;99224.69;5072328;28;20691;-65
2023/07/05 04:11:59;;;;;;;1.30;0.97;;;;;;;24.83;100.00;99225.66;5072218;28;20200;-65
2023/07/05 04:14:26;;;;;;;0.87;0.87;;;;;;;24.95;100.00;99229.75;5072402;28;20262;-65
2023/07/05 04:16:52;;;;;;;0.90;0.90;;;;;;;25.11;100.00;99223.09;5072310;28;20226;-65
2023/07/05 04:19:19;;;;;;;1.27;1.27;;;;;;;25.26;100.00;99229.56;5071916;28;20204;-65
2023/07/05 04:21:47;;;;;;;4.13;1.50;;;;;;;25.36;100.00;99222.47;5072243;28;20204;-66
2023/07/05 04:24:14;;;;;;;1.03;0.93;;;;;;;25.50;99.05;99220.22;5070647;28;20196;-65
2023/07/05 04:26:41;;;;;;;0.93;0.90;;;;;;;25.55;98.73;99206.69;5072402;28;20220;-65
2023/07/05 04:29:08;;;;;;;1.00;1.00;;;;;;;25.80;98.48;99224.38;5071826;28;20200;-65
2023/07/05 04:31:34;;;;;;;1.57;1.47;;;;;;;25.95;97.61;99220.25;5072339;28;20203;-65
2023/07/05 04:34:01;;;;;;;1.67;1.57;;;;;;;26.09;96.07;99217.13;5072264;28;20196;-65
2023/07/05 04:36:29;;;;;;;1.33;1.33;;;;;;;26.27;95.68;99217.16;5071902;28;20731;-65
2023/07/05 04:38:58;;;;;;;2.60;1.10;;;;;;;26.42;95.46;99225.38;5072140;28;20224;-65
2023/07/05 04:41:25;;;;;;;1.50;1.47;;;;;;;26.61;95.32;99214.69;5071672;28;20203;-65
2023/07/05 04:43:52;;;;;;;1.27;1.17;;;;;;;26.74;95.62;99217.75;5072230;28;20199;-65
2023/07/05 04:46:19;;;;;;;1.43;1.33;;;;;;;26.98;93.46;99225.03;5072025;28;20727;-65
2023/07/05 04:48:46;;;;;;;1.60;1.17;;;;;;;27.12;92.07;99220.00;5071807;28;20553;-66
2023/07/05 04:51:13;;;;;;;1.10;1.00;;;;;;;27.26;91.39;99229.13;5071261;28;20639;-66
2023/07/05 04:53:40;;;;;;;1.30;1.13;;;;;;;27.24;89.82;99209.22;5071996;28;20603;-66
2023/07/05 04:56:12;;;;;;;1.23;1.13;;;;;;;27.37;89.37;99220.13;5071653;28;20207;-65
2023/07/05 04:58:39;;;;;;;1.23;1.10;;;;;;;27.31;90.09;99221.59;5071406;28;20680;-66
2023/07/05 05:01:07;;;;;;;3.87;1.70;;;;;;;27.47;91.28;99218.22;5071243;28;20196;-65
2023/07/05 05:03:34;;;;;;;1.93;1.83;;;;;;;27.56;89.40;99217.31;5071579;28;20727;-66
2023/07/05 05:06:01;;;;;;;1.43;1.33;;;;;;;27.70;88.64;99227.22;5071388;28;20234;-65
2023/07/05 05:08:28;;;;;;;1.33;1.23;;;;;;;27.87;86.93;99234.22;5071377;28;20215;-65
2023/07/05 05:10:58;;;;;;;2.00;1.90;;;;;;;27.83;86.83;99230.25;5071603;28;20603;-66
2023/07/05 05:13:28;;;;;;;0.90;0.90;;;;;;;27.88;86.38;99227.97;5071114;28;20265;-66
2023/07/05 05:15:55;;;;;;;1.47;1.33;;;;;;;27.94;86.53;99229.13;5071305;28;20203;-65
2023/07/05 05:18:23;;;;;;;1.67;1.60;;;;;;;28.13;87.09;99231.50;5070983;28;20249;-65
2023/07/05 05:20:50;;;;;;;1.20;1.20;;;;;;;28.21;85.64;99230.72;5071104;28;20203;-65
2023/07/05 05:23:17;;;;;;;3.60;1.23;;;;;;;28.36;87.23;99224.63;5070891;28;20200;-66
2023/07/05 05:25:46;;;;;;;2.25;1.52;;;;;;;28.60;85.72;99229.06;5071165;28;20196;-66
2023/07/05 05:28:14;;;;;;;1.85;1.48;;;;;;;28.58;84.15;99228.44;5068498;28;20626;-66
2023/07/05 05:30:44;;;;;;;1.17;1.13;;;;;;;28.61;82.95;99222.81;5071393;28;20679;-66
2023/07/05 05:33:11;;;;;;;0.88;0.88;;;;;;;28.72;84.78;99225.16;5070789;28;20287;-65
2023/07/05 05:35:37;;;;;;;1.75;1.20;;;;;;;28.91;83.82;99222.19;5070725;28;20203;-65
2023/07/05 05:38:05;;;;;;;1.65;1.20;;;;;;;29.06;82.23;99222.31;5071025;28;20266;-66
2023/07/05 05:40:34;;;;;;;1.33;1.20;;;;;;;29.15;78.32;99216.00;5070757;28;20631;-68
2023/07/05 05:43:01;;;;;;;1.13;1.13;;;;;;;29.26;78.52;99228.91;5067305;28;20633;-64
2023/07/05 05:45:27;;;;;;;1.20;1.10;;;;;;;29.48;78.80;99216.78;5071293;28;20257;-64
2023/07/05 05:47:56;;;;;;;1.17;1.17;;;;;;;29.59;76.36;99198.75;5070989;28;20215;-64
2023/07/05 05:50:24;;;;;;;1.33;1.25;;;;;;;29.90;75.27;99217.28;5069938;28;20603;-64
2023/07/05 05:52:51;;;;;;;3.15;1.40;;;;;;;29.98;74.04;99198.75;5070519;28;20703;-65
2023/07/05 05:55:19;;;;;;;2.03;1.83;;;;;;;30.36;72.43;99217.31;5069945;28;20464;-63
2023/07/05 05:57:45;;;;;;;2.75;1.88;;;;;;;30.60;70.55;99219.78;5068107;28;20473;-63
2023/07/05 06:00:13;;;;;;;2.20;1.50;;;;;;;30.92;69.46;99216.84;5069520;28;20291;-63
2023/07/05 06:02:40;;;;;;;1.77;1.58;;;;;;;30.88;68.49;99201.53;5069485;28;20603;-63
2023/07/05 06:05:10;;;;;;;1.42;1.40;;;;;;;31.12;67.72;99220.66;5069083;28;20660;-63
2023/07/05 06:07:37;;;;;;;2.85;1.38;;;;;;;31.27;66.83;99219.84;5069482;28;20284;-63
2023/07/05 06:10:04;;;;;;;1.17;1.17;;;;;;;31.37;65.36;99226.53;5070510;28;20199;-64
2023/07/05 06:12:31;;;;;;;1.52;1.42;;;;;;;31.39;65.98;99223.69;5069824;28;20204;-63
2023/07/05 06:14:58;;;;;;;1.85;1.55;;;;;;;31.42;64.59;99225.97;5069070;28;20200;-64
2023/07/05 06:17:26;;;;;;;1.10;1.10;;;;;;;31.34;65.62;99212.81;5069398;28;20687;-63
2023/07/05 06:19:52;;;;;;;9.10;1.75;;;;;;;31.20;66.29;99217.94;5070284;28;20250;-63
2023/07/05 06:22:21;;;;;;;3.13;1.63;;;;;;;31.29;66.35;99226.59;5070731;28;20204;-63
2023/07/05 06:24:47;;;;;;;1.98;1.88;;;;;;;31.51;66.14;99219.59;5070509;28;20207;-64
2023/07/05 06:27:16;;;;;;;3.15;1.70;;;;;;;31.73;65.58;99213.34;5070402;28;20592;-63
2023/07/05 06:29:42;;;;;;;1.65;1.55;;;;;;;31.88;64.91;99216.78;5070434;28;20204;-64
2023/07/05 06:32:09;;;;;;;2.03;1.42;;;;;;;31.92;64.60;99209.28;5070239;28;20196;-63
2023/07/05 06:34:36;;;;;;;1.48;1.38;;;;;;;32.15;64.33;99210.78;5074325;28;20200;-64
2023/07/05 06:37:03;;;;;;;1.90;1.80;;;;;;;32.14;63.78;99211.81;5073980;28;20195;-64
2023/07/05 06:39:31;;;;;;;1.25;1.05;;;;;;;32.08;63.02;99204.63;5073988;28;20192;-63
2023/07/05 06:41:58;;;;;;;1.42;1.42;;;;;;;32.28;63.35;99202.13;5073972;28;20196;-64
2023/07/05 06:44:24;;;;;;;1.10;1.00;;;;;;;32.49;62.08;99203.97;5073800;28;20200;-64
2023/07/05 06:46:51;;;;;;;1.50;1.40;;;;;;;32.68;60.88;99200.69;5073379;28;20226;-64
2023/07/05 06:49:18;;;;;;;1.55;1.40;;;;;;;32.70;60.69;99202.13;5067559;28;20231;-63
2023/07/05 06:51:45;;;;;;;0.85;0.85;;;;;;;32.92;59.69;99205.59;5073265;28;20234;-63
2023/07/05 06:54:12;;;;;;;1.55;1.45;;;;;;;33.15;59.97;99206.16;5073469;28;20208;-63
2023/07/05 06:56:40;;;;;;;1.38;1.27;;;;;;;33.11;60.39;99199.59;5074021;28;20630;-64
2023/07/05 06:59:07;;;;;;;1.63;1.52;;;;;;;33.30;63.08;99197.25;5073243;28;20192;-63
2023/07/05 07:01:34;;;;;;;3.45;1.40;;;;;;;33.26;59.54;99207.44;5073899;28;20232;-64
2023/07/05 07:04:05;;;;;;;1.27;1.15;;;;;;;33.34;59.69;99209.13;5073759;28;20686;-64
2023/07/05 07:06:32;;;;;;;2.40;2.20;;;;;;;33.24;56.22;99210.31;5073488;28;20208;-64
2023/07/05 07:08:59;;;;;;;1.88;1.77;;;;;;;33.30;58.18;99218.50;5073041;28;20215;-64
2023/07/05 07:11:26;;;;;;;2.00;1.88;;;;;;;33.23;59.51;99213.97;5073345;28;20703;-64
2023/07/05 07:13:54;;;;;;;1.67;1.58;;;;;;;33.03;59.94;99206.84;5073668;28;20196;-64
2023/07/05 07:16:21;;;;;;;2.63;1.48;;;;;;;33.18;60.17;99211.06;5073200;28;20212;-63
2023/07/05 07:18:49;;;;;;;2.45;1.88;;;;;;;32.99;57.99;99198.44;5073498;28;20250;-63
2023/07/05 07:21:18;;;;;;;1.95;1.85;;;;;;;33.23;57.88;99213.97;5073456;28;20197;-63
2023/07/05 07:23:46;;;;;;;2.15;1.83;;;;;;;33.22;58.42;99201.69;5073480;28;20568;-64
2023/07/05 07:26:17;;;;;;;2.55;2.25;;;;;;;33.38;57.27;99186.47;5072842;28;20393;-63
2023/07/05 07:28:45;;;;;;;2.53;1.50;;;;;;;33.40;58.12;99205.69;5073231;28;20272;-63
2023/07/05 07:31:15;;;;;;;1.67;1.58;;;;;;;33.65;58.56;99199.69;5073134;28;20196;-64
2023/07/05 07:33:43;;;;;;;1.80;1.70;;;;;;;33.76;57.47;99201.78;5071727;28;20652;-64
2023/07/05 07:36:11;;;;;;;1.95;1.85;;;;;;;33.80;55.31;99199.53;5072582;28;20204;-64
2023/07/05 07:38:40;;;;;;;1.88;1.77;;;;;;;33.92;55.48;99197.94;5073030;28;20622;-63
2023/07/05 07:41:12;;;;;;;2.92;1.67;;;;;;;34.02;55.62;99203.72;5072997;28;20207;-64
2023/07/05 07:43:39;;;;;;;5.10;2.05;;;;;;;34.05;56.15;99205.97;5073031;28;20627;-63
2023/07/05 07:46:08;;;;;;;1.83;1.73;;;;;;;34.20;54.43;99196.00;5071962;28;20283;-64
2023/07/05 07:48:37;;;;;;;1.52;1.42;;;;;;;34.28;54.93;99197.66;5072809;28;20223;-63
2023/07/05 07:51:04;;;;;;;2.05;1.95;;;;;;;34.42;55.33;99207.25;5072564;28;20257;-63
2023/07/05 07:53:30;;;;;;;2.05;1.85;;;;;;;33.64;56.92;99199.88;5072713;28;20697;-63
2023/07/05 07:55:58;;;;;;;1.80;1.70;;;;;;;33.87;56.65;99200.38;5072580;28;20203;-64
2023/07/05 07:58:25;;;;;;;4.28;2.03;;;;;;;33.88;56.46;99196.69;5072776;28;20216;-63
2023/07/05 08:00:52;;;;;;;2.33;2.13;;;;;;;34.05;57.62;99197.97;5071991;28;20200;-63
2023/07/05 08:03:19;;;;;;;2.17;2.03;;;;;;;34.10;55.18;99195.53;5072552;28;20204;-63
2023/07/05 08:05:50;;;;;;;1.80;1.73;;;;;;;34.02;57.17;99177.09;5072637;28;20744;-63
2023/07/05 08:08:17;;;;;;;2.42;1.38;;;;;;;34.15;57.23;99186.97;5072286;28;20734;-64
2023/07/05 08:10:44;;;;;;;1.95;1.85;;;;;;;34.12;55.68;99192.72;5072256;28;20200;-63
2023/07/05 08:13:11;;;;;;;3.17;1.73;;;;;;;34.05;54.87;99197.97;5072121;28;20207;-63
2023/07/05 08:15:38;;;;;;;1.60;1.50;;;;;;;34.17;57.43;99201.72;5072281;28;20192;-63
2023/07/05 08:18:04;;;;;;;1.77;1.67;;;;;;;33.98;54.90;99191.00;5071138;28;20204;-65
2023/07/05 08:20:31;;;;;;;1.75;1.65;;;;;;;33.97;55.67;99200.81;5069838;28;20200;-63
2023/07/05 08:22:59;;;;;;;5.50;1.77;;;;;;;34.16;56.34;99189.41;5071816;28;20207;-64
2023/07/05 08:25:26;;;;;;;2.45;2.25;;;;;;;34.25;54.86;99193.53;5072040;28;20664;-64
2023/07/05 08:27:53;;;;;;;2.13;2.03;;;;;;;34.06;55.36;99188.97;5071847;28;20219;-63
2023/07/05 08:30:19;;;;;;;2.05;1.63;;;;;;;33.91;56.08;99177.69;5072156;28;20200;-63
2023/07/05 08:32:46;;;;;;;1.48;1.38;;;;;;;33.54;54.98;99172.84;5071915;28;20206;-63
2023/07/05 08:35:13;;;;;;;2.55;1.58;;;;;;;33.54;55.97;99178.16;5071368;28;20253;-63
2023/07/05 08:37:40;;;;;;;1.60;1.50;;;;;;;33.75;56.15;99181.53;5071890;28;20283;-64
2023/07/05 08:40:11;;;;;;;2.00;1.90;;;;;;;33.97;55.74;99173.38;5071660;28;20580;-63
2023/07/05 08:42:48;;;;;;;3.70;2.55;;;;;;;34.19;56.21;99172.22;5071797;28;20751;-63
2023/07/05 08:45:25;;;;;;;5.53;2.10;;;;;;;34.13;55.93;99173.88;5071563;28;20196;-63
2023/07/05 08:47:55;;;;;;;1.73;1.63;;;;;;;33.88;55.79;99175.44;5071433;28;20230;-63
2023/07/05 08:50:29;;;;;;;1.70;1.55;;;;;;;34.10;56.10;99174.25;5071501;28;20227;-63
2023/07/05 08:53:02;;;;;;;3.38;2.15;;;;;;;34.28;55.38;99165.72;5071419;28;20212;-63
2023/07/05 08:55:44;;;;;;;1.67;1.58;;;;;;;34.47;55.07;99166.72;5070935;28;20254;-63
2023/07/05 08:58:15;;;;;;;1.77;1.67;;;;;;;34.72;55.28;99170.44;5069355;28;20196;-65
2023/07/05 09:00:49;;;;;;;1.50;1.40;;;;;;;34.67;52.06;99165.72;5070465;28;20203;-64
2023/07/05 09:03:16;;;;;;;1.50;1.40;;;;;;;34.78;53.48;99177.59;5070168;28;20246;-63
2023/07/05 09:05:49;;;;;;;1.38;1.38;;;;;;;35.07;50.71;99166.47;5069897;28;20192;-63
2023/07/05 09:08:25;;;;;;;1.90;1.55;;;;;;;35.24;49.68;99157.03;5070178;28;20241;-63
2023/07/05 09:10:56;;;;;;;2.50;2.30;;;;;;;35.52;52.21;99161.22;5070602;28;20218;-63
2023/07/05 09:13:31;;;;;;;1.75;1.58;;;;;;;35.47;51.56;99161.03;5070318;28;20196;-63
2023/07/05 09:16:05;;;;;;;2.17;1.85;;;;;;;35.26;51.98;99162.97;5068767;28;20441;-66
2023/07/05 09:18:41;;;;;;;1.90;1.63;;;;;;;35.46;48.92;99152.22;5068205;28;20524;-65
2023/07/05 09:21:20;;;;;;;1.88;1.67;;;;;;;35.76;48.02;99157.84;5069581;28;20652;-66
2023/07/05 09:23:52;;;;;;;1.48;1.38;;;;;;;35.69;47.63;99151.72;5069534;28;20203;-66
2023/07/05 09:26:24;;;;;;;1.30;1.30;;;;;;;35.54;48.34;99141.31;5069662;28;20230;-65
2023/07/05 09:29:00;;;;;;;1.48;1.38;;;;;;;35.61;52.22;99130.63;5069691;28;20281;-65
2023/07/05 09:31:27;;;;;;;1.75;1.50;;;;;;;35.90;48.62;99129.25;5069642;28;20699;-66
2023/07/05 09:34:06;;;;;;;2.42;1.10;;;;;;;35.69;44.85;99133.06;5066555;28;20733;-66
2023/07/05 09:36:34;;;;;;;1.02;1.02;;;;;;;35.84;45.78;99120.22;5068043;28;20286;-66
2023/07/05 09:39:13;;;;;;;1.30;1.23;;;;;;;35.73;45.33;99112.94;5067483;28;20208;-65
2023/07/05 09:41:46;;;;;;;1.38;1.20;;;;;;;35.79;47.10;99112.06;5068066;28;20200;-65
2023/07/05 09:44:15;;;;;;;1.70;1.60;;;;;;;35.90;46.82;99107.91;5067068;28;20231;-65
2023/07/05 09:46:43;;;;;;;1.60;1.50;;;;;;;35.87;47.87;99100.34;5068666;28;20299;-66
2023/07/05 09:49:13;;;;;;;2.83;1.70;;;;;;;35.69;47.44;99090.38;5068256;28;20219;-66
2023/07/05 09:51:41;;;;;;;1.88;1.38;;;;;;;35.79;47.65;99093.41;5066746;28;20615;-65
2023/07/05 09:54:17;;;;;;;3.60;1.23;;;;;;;36.03;47.22;99094.47;5067470;28;20192;-66
2023/07/05 09:57:02;;;;;;;1.50;1.35;;;;;;;36.22;47.75;99094.31;5067992;28;20274;-65
2023/07/05 09:59:30;;;;;;;1.40;1.30;;;;;;;36.23;46.00;99093.28;5065950;28;20200;-65
2023/07/05 10:02:19;;;;;;;1.42;1.33;;;;;;;36.04;45.02;99110.25;5028395;28;1153239;-67
2023/07/05 10:04:48;;;;;;;1.50;1.40;;;;;;;35.96;45.32;99113.19;5065401;28;20258;-65
2023/07/05 10:07:16;;;;;;;1.45;1.40;;;;;;;35.92;46.78;99114.66;5069184;28;20204;-66
2023/07/05 10:09:56;;;;;;;1.17;1.17;;;;;;;36.01;45.30;99115.19;5071656;28;20251;-66
2023/07/05 10:12:28;;;;;;;1.40;1.30;;;;;;;35.72;45.60;99113.97;5072010;28;20686;-66
2023/07/05 10:14:56;;;;;;;1.48;1.23;;;;;;;35.38;47.49;99106.31;5073539;28;20223;-66
2023/07/05 10:17:24;;;;;;;1.58;1.48;;;;;;;35.39;48.99;99105.28;5072894;28;20227;-66
2023/07/05 10:19:52;;;;;;;1.33;1.23;;;;;;;35.54;47.56;99105.84;5074281;28;20634;-65
2023/07/05 10:22:26;;;;;;;2.15;1.65;;;;;;;35.77;47.49;99093.59;5074351;28;20192;-64
2023/07/05 10:24:58;;;;;;;1.40;1.30;;;;;;;35.81;48.81;99088.66;5072272;28;20647;-63
2023/07/05 10:27:29;;;;;;;1.67;1.58;;;;;;;35.83;47.72;99086.59;5073071;28;20200;-62
2023/07/05 10:30:03;;;;;;;1.23;1.20;;;;;;;35.56;45.59;99075.25;5073189;28;20242;-63
2023/07/05 10:32:31;;;;;;;0.93;0.93;;;;;;;35.12;45.89;99073.41;5072803;28;20250;-63
2023/07/05 10:34:58;;;;;;;1.15;1.15;;;;;;;34.96;46.57;99068.53;5072777;28;20294;-63
2023/07/05 10:37:32;;;;;;;3.53;1.30;;;;;;;34.68;47.75;99044.03;5073265;28;20204;-63
2023/07/05 10:40:04;;;;;;;1.38;1.30;;;;;;;34.36;48.80;99061.69;5073218;28;20199;-63
2023/07/05 10:42:33;;;;;;;1.95;1.75;;;;;;;34.29;50.55;99060.88;5072275;28;20204;-62
2023/07/05 10:45:03;;;;;;;1.15;0.93;;;;;;;34.46;49.86;99058.59;5073182;28;20200;-62
2023/07/05 10:47:31;;;;;;;1.30;1.25;;;;;;;34.22;48.77;99050.22;5072803;28;20672;-63
2023/07/05 10:50:05;;;;;;;1.20;1.10;;;;;;;34.10;49.82;99057.16;5073801;28;20694;-63
2023/07/05 10:52:34;;;;;;;1.15;1.15;;;;;;;34.12;50.03;99060.47;5069862;28;20226;-65
2023/07/05 10:55:08;;;;;;;1.67;1.58;;;;;;;34.50;50.32;99073.13;5073479;28;20623;-66
2023/07/05 10:57:41;;;;;;;1.63;1.52;;;;;;;34.43;51.06;99059.00;5073539;28;20187;-67
2023/07/05 11:00:21;;;;;;;1.27;1.25;;;;;;;34.51;50.43;99064.94;5070450;28;20196;-65
2023/07/05 11:02:55;;;;;;;2.10;1.20;;;;;;;34.57;51.46;99068.63;5071298;28;20314;-65
2023/07/05 11:05:29;;;;;;;1.58;1.27;;;;;;;34.80;51.29;99072.47;5072041;28;20241;-66
2023/07/05 11:08:01;;;;;;;1.52;1.42;;;;;;;34.74;50.49;99056.50;5071290;28;20210;-66
2023/07/05 11:10:30;;;;;;;1.42;1.33;;;;;;;34.83;50.85;99078.44;5071125;28;20761;-65
2023/07/05 11:12:58;;;;;;;1.10;1.10;;;;;;;34.74;50.76;99083.13;5069073;28;20208;-65
2023/07/05 11:15:25;;;;;;;1.10;1.10;;;;;;;34.88;50.93;99092.75;5070400;28;20234;-65
2023/07/05 11:17:52;;;;;;;1.35;1.25;;;;;;;35.09;49.74;99087.13;5070895;28;20626;-64
2023/07/05 11:20:47;;;;;;;1.00;1.00;;;;;;;35.08;48.51;99077.50;5071188;28;20196;-65
2023/07/05 11:23:54;;;;;;;1.10;1.08;;;;;;;35.01;49.57;99082.03;5073165;28;20295;-66
2023/07/05 11:26:38;;;;;;;3.67;1.42;;;;;;;35.11;49.37;99077.13;5067052;28;20207;-66
2023/07/05 11:29:49;;;;;;;1.40;1.30;;;;;;;34.73;49.86;99078.88;5070343;28;20216;-65
2023/07/05 11:32:16;;;;;;;1.35;1.13;;;;;;;34.79;49.99;99078.84;5060773;28;20695;-66
2023/07/05 11:34:46;;;;;;;1.27;1.27;;;;;;;34.71;49.63;99075.56;5069267;28;20200;-65
2023/07/05 11:37:49;;;;;;;1.38;1.27;;;;;;;34.83;50.22;99063.28;5069170;28;20204;-65
2023/07/05 11:41:04;;;;;;;1.08;1.08;;;;;;;34.88;49.68;99060.78;5071333;28;20291;-65
2023/07/05 11:43:38;;;;;;;1.50;1.40;;;;;;;34.94;49.07;99054.59;5071453;28;20210;-65
2023/07/05 11:46:40;;;;;;;1.77;1.20;;;;;;;35.09;49.11;99060.47;5071562;28;20210;-65